UAE111 OMDB-LHBP
Flight info
| Callsign | UAE111 |
|---|---|
| Flight time | 5h 10m |
| Altitude | 36000 |
| Route | RIDAP M557 TUMAK L602 TASMI UL602 GADSI UM860 ODALI UL852 NEGEM/N0483F380 T746 ARGES DCT BUDOP DCT KEZAL |
| Aircraft | B77W/H-SDE1E2E3FGHIJ2J3J4J5M1RWXY/LB1D1 |
Departure
| Time | 2026-04-20 12:06 |
|---|---|
| Airport | Dubai International Airport (OMDB) |
Arrival
| Time | 2026-04-20 17:16 |
|---|---|
| Airport | Budapest Liszt Ferenc International Airport (LHBP) |
| Time | Latitude | Longitude | Altitude | Speed | Heading |
|---|---|---|---|---|---|
| 2026-04-20 11:30 | 25.24317 | 55.37444 | 43 ft | 0 kts | 211° |
| 2026-04-20 11:58 | 25.24320 | 55.37446 | 47 ft | 3 kts | 212° |
| 2026-04-20 11:58 | 25.24340 | 55.37465 | 41 ft | 4 kts | 226° |
| 2026-04-20 11:58 | 25.24358 | 55.37481 | 40 ft | 4 kts | 205° |
| 2026-04-20 11:58 | 25.24382 | 55.37487 | 40 ft | 4 kts | 163° |
| 2026-04-20 11:59 | 25.24402 | 55.37471 | 38 ft | 4 kts | 124° |
| 2026-04-20 11:59 | 25.24415 | 55.37448 | 38 ft | 4 kts | 122° |
| 2026-04-20 11:59 | 25.24428 | 55.37425 | 38 ft | 1 kts | 122° |
| 2026-04-20 12:01 | 25.24424 | 55.37433 | 41 ft | 5 kts | 122° |
| 2026-04-20 12:02 | 25.24388 | 55.37497 | 43 ft | 14 kts | 122° |
| 2026-04-20 12:02 | 25.24337 | 55.37588 | 45 ft | 14 kts | 122° |
| 2026-04-20 12:02 | 25.24286 | 55.37678 | 46 ft | 14 kts | 122° |
| 2026-04-20 12:02 | 25.24282 | 55.37775 | 48 ft | 14 kts | 45° |
| 2026-04-20 12:03 | 25.24360 | 55.37838 | 47 ft | 14 kts | 33° |
| 2026-04-20 12:03 | 25.24438 | 55.37895 | 48 ft | 14 kts | 34° |
| 2026-04-20 12:03 | 25.24518 | 55.37956 | 48 ft | 14 kts | 35° |
| 2026-04-20 12:03 | 25.24598 | 55.38017 | 48 ft | 14 kts | 34° |
| 2026-04-20 12:04 | 25.24680 | 55.38074 | 48 ft | 14 kts | 30° |
| 2026-04-20 12:04 | 25.24768 | 55.38095 | 48 ft | 14 kts | 326° |
| 2026-04-20 12:04 | 25.24795 | 55.38056 | 47 ft | 0 kts | 303° |
| 2026-04-20 12:04 | 25.24803 | 55.38043 | 47 ft | 11 kts | 302° |
| 2026-04-20 12:05 | 25.24960 | 55.37760 | 41 ft | 81 kts | 301° |
| 2026-04-20 12:05 | 25.25382 | 55.36999 | 27 ft | 148 kts | 301° |
| 2026-04-20 12:05 | 25.25993 | 55.35873 | 151 ft | 188 kts | 300° |
| 2026-04-20 12:05 | 25.26668 | 55.34554 | 590 ft | 194 kts | 298° |
| 2026-04-20 12:06 | 25.27352 | 55.33256 | 1173 ft | 202 kts | 302° |
| 2026-04-20 12:06 | 25.28131 | 55.31907 | 1409 ft | 223 kts | 302° |
| 2026-04-20 12:06 | 25.29021 | 55.30358 | 1650 ft | 248 kts | 302° |
| 2026-04-20 12:06 | 25.29965 | 55.28760 | 2191 ft | 258 kts | 305° |
| 2026-04-20 12:07 | 25.31031 | 55.27102 | 2899 ft | 263 kts | 306° |
| 2026-04-20 12:07 | 25.32084 | 55.25470 | 3673 ft | 264 kts | 306° |
| 2026-04-20 12:07 | 25.33149 | 55.23809 | 4471 ft | 265 kts | 306° |
| 2026-04-20 12:07 | 25.34218 | 55.22137 | 5220 ft | 268 kts | 306° |
| 2026-04-20 12:08 | 25.35284 | 55.20436 | 5913 ft | 270 kts | 301° |
| 2026-04-20 12:08 | 25.35852 | 55.18448 | 6416 ft | 279 kts | 272° |
| 2026-04-20 12:08 | 25.35781 | 55.16292 | 7024 ft | 282 kts | 269° |
| 2026-04-20 12:08 | 25.35695 | 55.14117 | 7728 ft | 284 kts | 269° |
| 2026-04-20 12:09 | 25.35613 | 55.11936 | 8461 ft | 285 kts | 269° |
| 2026-04-20 12:09 | 25.35532 | 55.09762 | 9152 ft | 288 kts | 269° |
| 2026-04-20 12:09 | 25.35449 | 55.07547 | 9831 ft | 291 kts | 269° |
| 2026-04-20 12:09 | 25.35365 | 55.05284 | 10346 ft | 301 kts | 269° |
| 2026-04-20 12:10 | 25.35278 | 55.02875 | 10516 ft | 326 kts | 269° |
| 2026-04-20 12:10 | 25.35183 | 55.00288 | 10700 ft | 349 kts | 269° |
| 2026-04-20 12:10 | 25.35082 | 54.97520 | 10958 ft | 368 kts | 269° |
| 2026-04-20 12:10 | 25.34976 | 54.94664 | 11535 ft | 377 kts | 269° |
| 2026-04-20 12:11 | 25.34879 | 54.91749 | 12325 ft | 378 kts | 271° |
| 2026-04-20 12:11 | 25.35214 | 54.88894 | 12997 ft | 377 kts | 288° |
| 2026-04-20 12:11 | 25.36079 | 54.86147 | 13623 ft | 383 kts | 290° |
| 2026-04-20 12:11 | 25.36949 | 54.83350 | 14364 ft | 386 kts | 289° |
| 2026-04-20 12:12 | 25.37769 | 54.80587 | 15143 ft | 388 kts | 288° |
| 2026-04-20 12:12 | 25.38586 | 54.77757 | 15868 ft | 391 kts | 288° |
| 2026-04-20 12:12 | 25.39411 | 54.74868 | 16588 ft | 396 kts | 288° |
| 2026-04-20 12:12 | 25.40246 | 54.71937 | 17268 ft | 401 kts | 288° |
| 2026-04-20 12:13 | 25.41088 | 54.69006 | 17996 ft | 406 kts | 288° |
| 2026-04-20 12:13 | 25.41952 | 54.66019 | 18647 ft | 409 kts | 288° |
| 2026-04-20 12:13 | 25.42821 | 54.63017 | 19326 ft | 411 kts | 288° |
| 2026-04-20 12:13 | 25.43698 | 54.59992 | 20017 ft | 413 kts | 287° |
| 2026-04-20 12:14 | 25.44588 | 54.56960 | 20707 ft | 416 kts | 287° |
| 2026-04-20 12:14 | 25.45486 | 54.53913 | 21340 ft | 419 kts | 287° |
| 2026-04-20 12:14 | 25.46380 | 54.50880 | 21953 ft | 422 kts | 287° |
| 2026-04-20 12:14 | 25.47290 | 54.47786 | 22585 ft | 424 kts | 287° |
| 2026-04-20 12:15 | 25.48207 | 54.44665 | 23214 ft | 427 kts | 287° |
| 2026-04-20 12:15 | 25.49124 | 54.41533 | 23718 ft | 430 kts | 287° |
| 2026-04-20 12:15 | 25.50051 | 54.38368 | 24171 ft | 434 kts | 287° |
| 2026-04-20 12:15 | 25.50983 | 54.35179 | 24590 ft | 438 kts | 287° |
| 2026-04-20 12:16 | 25.51927 | 54.31950 | 25036 ft | 442 kts | 287° |
| 2026-04-20 12:16 | 25.52874 | 54.28705 | 25476 ft | 446 kts | 287° |
| 2026-04-20 12:16 | 25.53820 | 54.25465 | 25910 ft | 449 kts | 287° |
| 2026-04-20 12:16 | 25.54801 | 54.22115 | 26346 ft | 453 kts | 287° |
| 2026-04-20 12:17 | 25.55763 | 54.18861 | 26779 ft | 456 kts | 287° |
| 2026-04-20 12:17 | 25.56754 | 54.15520 | 27186 ft | 460 kts | 287° |
| 2026-04-20 12:17 | 25.57754 | 54.12144 | 27587 ft | 463 kts | 287° |
| 2026-04-20 12:17 | 25.58760 | 54.08737 | 27978 ft | 467 kts | 287° |
| 2026-04-20 12:18 | 25.59766 | 54.05309 | 28364 ft | 470 kts | 287° |
| 2026-04-20 12:18 | 25.60757 | 54.01850 | 28716 ft | 473 kts | 286° |
| 2026-04-20 12:18 | 25.61744 | 53.98357 | 29099 ft | 475 kts | 287° |
| 2026-04-20 12:18 | 25.62714 | 53.94912 | 29559 ft | 475 kts | 287° |
| 2026-04-20 12:19 | 25.63702 | 53.91410 | 29889 ft | 479 kts | 286° |
| 2026-04-20 12:19 | 25.64699 | 53.87879 | 30241 ft | 479 kts | 287° |
| 2026-04-20 12:19 | 25.65690 | 53.84374 | 30775 ft | 475 kts | 287° |
| 2026-04-20 12:19 | 25.66672 | 53.80901 | 31391 ft | 468 kts | 287° |
| 2026-04-20 12:20 | 25.67637 | 53.77483 | 32006 ft | 462 kts | 287° |
| 2026-04-20 12:20 | 25.68593 | 53.74096 | 32550 ft | 458 kts | 287° |
| 2026-04-20 12:20 | 25.69535 | 53.70750 | 33139 ft | 453 kts | 287° |
| 2026-04-20 12:20 | 25.70468 | 53.67431 | 33616 ft | 450 kts | 287° |
| 2026-04-20 12:21 | 25.71386 | 53.64163 | 33978 ft | 448 kts | 287° |
| 2026-04-20 12:21 | 25.72306 | 53.60881 | 34368 ft | 445 kts | 287° |
| 2026-04-20 12:21 | 25.73218 | 53.57627 | 34855 ft | 439 kts | 287° |
| 2026-04-20 12:21 | 25.74112 | 53.54436 | 35370 ft | 432 kts | 287° |
| 2026-04-20 12:22 | 25.74996 | 53.51277 | 35803 ft | 428 kts | 288° |
| 2026-04-20 12:22 | 25.75887 | 53.48105 | 35793 ft | 433 kts | 288° |
| 2026-04-20 12:22 | 25.77692 | 53.41724 | 35805 ft | 432 kts | 288° |
| 2026-04-20 12:23 | 25.79480 | 53.35394 | 35808 ft | 428 kts | 288° |
| 2026-04-20 12:23 | 25.81239 | 53.29149 | 35812 ft | 427 kts | 288° |
| 2026-04-20 12:24 | 25.83004 | 53.22869 | 35817 ft | 426 kts | 287° |
| 2026-04-20 12:24 | 25.84939 | 53.16664 | 35805 ft | 426 kts | 293° |
| 2026-04-20 12:25 | 25.87404 | 53.10684 | 35815 ft | 426 kts | 294° |
| 2026-04-20 12:25 | 25.89850 | 53.04703 | 35818 ft | 427 kts | 294° |
| 2026-04-20 12:26 | 25.92274 | 52.98730 | 35812 ft | 427 kts | 293° |
| 2026-04-20 12:26 | 25.94724 | 52.92677 | 35817 ft | 427 kts | 293° |
| 2026-04-20 12:27 | 25.97146 | 52.86687 | 35814 ft | 427 kts | 293° |
| 2026-04-20 12:27 | 25.99576 | 52.80668 | 35816 ft | 427 kts | 293° |
| 2026-04-20 12:28 | 26.01998 | 52.74663 | 35815 ft | 427 kts | 293° |
| 2026-04-20 12:28 | 26.04619 | 52.68726 | 35815 ft | 428 kts | 296° |
| 2026-04-20 12:29 | 26.07330 | 52.62837 | 35819 ft | 427 kts | 295° |
| 2026-04-20 12:29 | 26.09996 | 52.56936 | 35819 ft | 427 kts | 295° |
| 2026-04-20 12:30 | 26.12638 | 52.51062 | 35820 ft | 427 kts | 295° |
| 2026-04-20 12:30 | 26.15315 | 52.45162 | 35821 ft | 426 kts | 295° |
| 2026-04-20 12:31 | 26.17983 | 52.39273 | 35831 ft | 426 kts | 295° |
| 2026-04-20 12:31 | 26.20627 | 52.33423 | 35821 ft | 426 kts | 295° |
| 2026-04-20 12:32 | 26.23267 | 52.27512 | 35831 ft | 426 kts | 294° |
| 2026-04-20 12:32 | 26.25830 | 52.21569 | 35822 ft | 425 kts | 294° |
| 2026-04-20 12:33 | 26.28389 | 52.15629 | 35827 ft | 425 kts | 294° |
| 2026-04-20 12:33 | 26.30935 | 52.09737 | 35827 ft | 424 kts | 294° |
| 2026-04-20 12:34 | 26.33487 | 52.03805 | 35833 ft | 424 kts | 293° |
| 2026-04-20 12:34 | 26.36024 | 51.97860 | 35829 ft | 425 kts | 293° |
| 2026-04-20 12:35 | 26.38386 | 51.91845 | 35829 ft | 423 kts | 288° |
| 2026-04-20 12:35 | 26.40395 | 51.85718 | 35835 ft | 423 kts | 289° |
| 2026-04-20 12:36 | 26.42463 | 51.79562 | 35826 ft | 424 kts | 289° |
| 2026-04-20 12:36 | 26.44546 | 51.73411 | 35850 ft | 424 kts | 289° |
| 2026-04-20 12:37 | 26.46628 | 51.67240 | 35844 ft | 425 kts | 289° |
| 2026-04-20 12:37 | 26.48722 | 51.61063 | 35838 ft | 426 kts | 289° |
| 2026-04-20 12:38 | 26.50781 | 51.54861 | 35828 ft | 426 kts | 288° |
| 2026-04-20 12:38 | 26.52817 | 51.48709 | 35842 ft | 426 kts | 288° |
| 2026-04-20 12:39 | 26.55893 | 51.39413 | 35844 ft | 425 kts | 288° |
| 2026-04-20 12:40 | 26.57944 | 51.33208 | 35849 ft | 426 kts | 288° |
| 2026-04-20 12:40 | 26.59994 | 51.27000 | 35847 ft | 426 kts | 288° |
| 2026-04-20 12:41 | 26.62033 | 51.20832 | 35846 ft | 426 kts | 288° |
| 2026-04-20 12:41 | 26.64085 | 51.14618 | 35850 ft | 426 kts | 288° |
| 2026-04-20 12:42 | 26.66134 | 51.08399 | 35850 ft | 426 kts | 288° |
| 2026-04-20 12:42 | 26.68179 | 51.02182 | 35849 ft | 427 kts | 288° |
| 2026-04-20 12:43 | 26.70193 | 50.95973 | 35860 ft | 427 kts | 288° |
| 2026-04-20 12:43 | 26.72198 | 50.89711 | 35852 ft | 428 kts | 288° |
| 2026-04-20 12:44 | 26.74196 | 50.83468 | 35859 ft | 428 kts | 288° |
| 2026-04-20 12:44 | 26.76202 | 50.77199 | 35857 ft | 429 kts | 288° |
| 2026-04-20 12:45 | 26.78216 | 50.70908 | 35855 ft | 429 kts | 289° |
| 2026-04-20 12:45 | 26.80840 | 50.64955 | 35871 ft | 432 kts | 297° |
| 2026-04-20 12:46 | 26.84235 | 50.59377 | 35862 ft | 436 kts | 305° |
| 2026-04-20 12:46 | 26.88121 | 50.54136 | 35852 ft | 437 kts | 305° |
| 2026-04-20 12:47 | 26.91969 | 50.48912 | 35856 ft | 438 kts | 307° |
| 2026-04-20 12:47 | 26.96128 | 50.43902 | 35862 ft | 440 kts | 309° |
| 2026-04-20 12:48 | 27.00346 | 50.38930 | 35867 ft | 440 kts | 308° |
| 2026-04-20 12:48 | 27.04553 | 50.33919 | 35865 ft | 441 kts | 308° |
| 2026-04-20 12:49 | 27.08705 | 50.28928 | 35847 ft | 441 kts | 308° |
| 2026-04-20 12:49 | 27.12877 | 50.23891 | 35845 ft | 441 kts | 308° |
| 2026-04-20 12:50 | 27.17241 | 50.19046 | 35853 ft | 446 kts | 314° |
| 2026-04-20 12:50 | 27.22258 | 50.14854 | 35851 ft | 450 kts | 318° |
| 2026-04-20 12:51 | 27.27296 | 50.10725 | 35855 ft | 450 kts | 317° |
| 2026-04-20 12:51 | 27.32311 | 50.06569 | 35861 ft | 450 kts | 317° |
| 2026-04-20 12:52 | 27.37302 | 50.02404 | 35866 ft | 449 kts | 317° |
| 2026-04-20 12:52 | 27.42236 | 49.98090 | 35866 ft | 448 kts | 316° |
| 2026-04-20 12:53 | 27.47138 | 49.93748 | 35878 ft | 448 kts | 316° |
| 2026-04-20 12:53 | 27.52050 | 49.89412 | 35874 ft | 449 kts | 316° |
| 2026-04-20 12:54 | 27.56950 | 49.85098 | 35880 ft | 450 kts | 316° |
| 2026-04-20 12:54 | 27.61881 | 49.80754 | 35876 ft | 452 kts | 316° |
| 2026-04-20 12:55 | 27.66828 | 49.76390 | 35890 ft | 452 kts | 315° |
| 2026-04-20 12:55 | 27.71781 | 49.72015 | 35880 ft | 452 kts | 315° |
| 2026-04-20 12:56 | 27.76736 | 49.67633 | 35877 ft | 451 kts | 315° |
| 2026-04-20 12:56 | 27.81629 | 49.63284 | 35883 ft | 450 kts | 315° |
| 2026-04-20 12:57 | 27.86525 | 49.58903 | 35891 ft | 449 kts | 315° |
| 2026-04-20 12:57 | 27.91420 | 49.54518 | 35880 ft | 448 kts | 315° |
| 2026-04-20 12:58 | 27.96296 | 49.50148 | 35884 ft | 448 kts | 315° |
| 2026-04-20 12:58 | 28.01183 | 49.45764 | 35908 ft | 447 kts | 314° |
| 2026-04-20 12:59 | 28.06045 | 49.41376 | 35896 ft | 447 kts | 314° |
| 2026-04-20 12:59 | 28.10851 | 49.36991 | 35889 ft | 446 kts | 314° |
| 2026-04-20 13:00 | 28.15668 | 49.32592 | 35891 ft | 445 kts | 314° |
| 2026-04-20 13:00 | 28.20495 | 49.28183 | 35904 ft | 445 kts | 313° |
| 2026-04-20 13:01 | 28.25311 | 49.23782 | 35901 ft | 445 kts | 313° |
| 2026-04-20 13:01 | 28.30104 | 49.19379 | 35899 ft | 445 kts | 313° |
| 2026-04-20 13:02 | 28.34904 | 49.14942 | 35896 ft | 445 kts | 313° |
| 2026-04-20 13:02 | 28.39685 | 49.10551 | 35898 ft | 448 kts | 315° |
| 2026-04-20 13:03 | 28.44863 | 49.06517 | 35888 ft | 453 kts | 318° |
| 2026-04-20 13:03 | 28.50119 | 49.02543 | 35895 ft | 453 kts | 318° |
| 2026-04-20 13:04 | 28.55360 | 48.98550 | 35909 ft | 454 kts | 317° |
| 2026-04-20 13:04 | 28.60569 | 48.94557 | 35908 ft | 455 kts | 317° |
| 2026-04-20 13:05 | 28.65810 | 48.90531 | 35908 ft | 455 kts | 317° |
| 2026-04-20 13:05 | 28.71065 | 48.86491 | 35927 ft | 456 kts | 317° |
| 2026-04-20 13:06 | 28.76298 | 48.82462 | 35918 ft | 457 kts | 317° |
| 2026-04-20 13:06 | 28.81574 | 48.78399 | 35916 ft | 458 kts | 317° |
| 2026-04-20 13:07 | 28.85977 | 48.75019 | 35909 ft | 459 kts | 317° |
| 2026-04-20 13:07 | 28.91281 | 48.70951 | 35918 ft | 461 kts | 318° |
| 2026-04-20 13:08 | 28.96623 | 48.66847 | 35919 ft | 463 kts | 318° |
| 2026-04-20 13:08 | 29.02834 | 48.62066 | 35918 ft | 463 kts | 317° |
| 2026-04-20 13:09 | 29.07318 | 48.58611 | 35910 ft | 463 kts | 317° |
| 2026-04-20 13:09 | 29.12607 | 48.54529 | 35912 ft | 462 kts | 317° |
| 2026-04-20 13:10 | 29.17927 | 48.50418 | 35913 ft | 461 kts | 317° |
| 2026-04-20 13:10 | 29.23237 | 48.46309 | 35923 ft | 461 kts | 318° |
| 2026-04-20 13:11 | 29.28548 | 48.42193 | 35923 ft | 461 kts | 317° |
| 2026-04-20 13:11 | 29.33867 | 48.38066 | 35910 ft | 461 kts | 317° |
| 2026-04-20 13:12 | 29.39137 | 48.33973 | 35929 ft | 462 kts | 317° |
| 2026-04-20 13:12 | 29.44494 | 48.29873 | 35909 ft | 467 kts | 321° |
| 2026-04-20 13:13 | 29.50145 | 48.26136 | 35914 ft | 470 kts | 322° |
| 2026-04-20 13:13 | 29.55840 | 48.22441 | 35931 ft | 471 kts | 322° |
| 2026-04-20 13:14 | 29.61527 | 48.18720 | 35909 ft | 473 kts | 321° |
| 2026-04-20 13:14 | 29.67235 | 48.14961 | 35903 ft | 473 kts | 321° |
| 2026-04-20 13:15 | 29.72950 | 48.11187 | 35914 ft | 474 kts | 321° |
| 2026-04-20 13:15 | 29.78688 | 48.07394 | 35899 ft | 475 kts | 321° |
| 2026-04-20 13:16 | 29.84420 | 48.03601 | 35900 ft | 475 kts | 321° |
| 2026-04-20 13:16 | 29.90099 | 47.99838 | 35912 ft | 475 kts | 321° |
| 2026-04-20 13:17 | 29.95831 | 47.96034 | 35896 ft | 475 kts | 321° |
| 2026-04-20 13:17 | 30.01326 | 47.91937 | 35885 ft | 463 kts | 312° |
| 2026-04-20 13:18 | 30.05970 | 47.86919 | 35907 ft | 451 kts | 302° |
| 2026-04-20 13:18 | 30.10057 | 47.81433 | 35891 ft | 450 kts | 302° |
| 2026-04-20 13:19 | 30.14101 | 47.75972 | 35896 ft | 451 kts | 302° |
| 2026-04-20 13:19 | 30.18193 | 47.70481 | 35884 ft | 451 kts | 302° |
| 2026-04-20 13:20 | 30.22296 | 47.64990 | 35888 ft | 452 kts | 302° |
| 2026-04-20 13:20 | 30.26406 | 47.59486 | 35882 ft | 452 kts | 302° |
| 2026-04-20 13:21 | 30.30517 | 47.53973 | 35878 ft | 452 kts | 302° |
| 2026-04-20 13:21 | 30.34593 | 47.48499 | 35877 ft | 452 kts | 302° |
| 2026-04-20 13:22 | 30.38693 | 47.42984 | 35875 ft | 452 kts | 302° |
| 2026-04-20 13:22 | 30.42787 | 47.37468 | 35869 ft | 452 kts | 302° |
| 2026-04-20 13:23 | 30.46879 | 47.31948 | 35891 ft | 451 kts | 301° |
| 2026-04-20 13:23 | 30.50975 | 47.26414 | 35869 ft | 452 kts | 301° |
| 2026-04-20 13:24 | 30.55041 | 47.20922 | 35859 ft | 453 kts | 302° |
| 2026-04-20 13:24 | 30.59664 | 47.15823 | 35858 ft | 466 kts | 311° |
| 2026-04-20 13:25 | 30.64739 | 47.11142 | 35852 ft | 466 kts | 312° |
| 2026-04-20 13:25 | 30.69816 | 47.06457 | 35846 ft | 466 kts | 311° |
| 2026-04-20 13:26 | 30.74836 | 47.01782 | 35842 ft | 465 kts | 311° |
| 2026-04-20 13:26 | 30.79874 | 46.97065 | 35851 ft | 465 kts | 311° |
| 2026-04-20 13:27 | 30.84915 | 46.92335 | 35832 ft | 465 kts | 311° |
| 2026-04-20 13:27 | 30.89955 | 46.87599 | 35832 ft | 465 kts | 311° |
| 2026-04-20 13:28 | 30.94989 | 46.82864 | 35835 ft | 466 kts | 311° |
| 2026-04-20 13:28 | 31.00003 | 46.78141 | 35820 ft | 466 kts | 311° |
| 2026-04-20 13:29 | 31.05037 | 46.73394 | 35839 ft | 466 kts | 311° |
| 2026-04-20 13:29 | 31.10083 | 46.68628 | 35812 ft | 467 kts | 311° |
| 2026-04-20 13:30 | 31.15106 | 46.63878 | 35810 ft | 466 kts | 311° |
| 2026-04-20 13:30 | 31.20151 | 46.59099 | 35838 ft | 466 kts | 311° |
| 2026-04-20 13:31 | 31.25168 | 46.54341 | 35820 ft | 466 kts | 311° |
| 2026-04-20 13:31 | 31.30164 | 46.49596 | 35809 ft | 465 kts | 311° |
| 2026-04-20 13:32 | 31.35177 | 46.44828 | 35832 ft | 464 kts | 311° |
| 2026-04-20 13:32 | 31.40181 | 46.40062 | 35808 ft | 463 kts | 311° |
| 2026-04-20 13:33 | 31.45134 | 46.35338 | 35805 ft | 462 kts | 311° |
| 2026-04-20 13:33 | 31.50112 | 46.30582 | 35827 ft | 461 kts | 311° |
| 2026-04-20 13:34 | 31.55084 | 46.25823 | 35815 ft | 462 kts | 311° |
| 2026-04-20 13:34 | 31.60064 | 46.21053 | 35807 ft | 461 kts | 311° |
| 2026-04-20 13:35 | 31.64995 | 46.16323 | 35847 ft | 462 kts | 311° |
| 2026-04-20 13:35 | 31.69976 | 46.11535 | 35812 ft | 463 kts | 311° |
| 2026-04-20 13:36 | 31.74957 | 46.06745 | 35831 ft | 463 kts | 311° |
| 2026-04-20 13:36 | 31.79890 | 46.01901 | 35833 ft | 461 kts | 310° |
| 2026-04-20 13:37 | 31.84773 | 45.97033 | 35846 ft | 460 kts | 310° |
| 2026-04-20 13:37 | 31.89622 | 45.92195 | 35829 ft | 460 kts | 310° |
| 2026-04-20 13:38 | 31.94498 | 45.87335 | 35840 ft | 460 kts | 311° |
| 2026-04-20 13:38 | 31.99384 | 45.82463 | 35834 ft | 460 kts | 311° |
| 2026-04-20 13:39 | 32.04279 | 45.77575 | 35836 ft | 462 kts | 311° |
| 2026-04-20 13:39 | 32.09175 | 45.72679 | 35844 ft | 462 kts | 310° |
| 2026-04-20 13:40 | 32.14038 | 45.67811 | 35834 ft | 461 kts | 310° |
| 2026-04-20 13:40 | 32.18921 | 45.62914 | 35838 ft | 460 kts | 310° |
| 2026-04-20 13:41 | 32.23798 | 45.58015 | 35829 ft | 460 kts | 310° |
| 2026-04-20 13:41 | 32.28675 | 45.53110 | 35828 ft | 460 kts | 310° |
| 2026-04-20 13:42 | 32.33513 | 45.48236 | 35836 ft | 460 kts | 310° |
| 2026-04-20 13:42 | 32.40824 | 45.40858 | 35820 ft | 460 kts | 310° |
| 2026-04-20 13:43 | 32.45688 | 45.35940 | 35837 ft | 460 kts | 310° |
| 2026-04-20 13:43 | 32.50555 | 45.31011 | 35824 ft | 460 kts | 310° |
| 2026-04-20 13:44 | 32.55455 | 45.26122 | 35812 ft | 464 kts | 314° |
| 2026-04-20 13:44 | 32.60800 | 45.21798 | 35822 ft | 470 kts | 317° |
| 2026-04-20 13:45 | 32.66262 | 45.17539 | 35816 ft | 470 kts | 317° |
| 2026-04-20 13:45 | 32.71714 | 45.13250 | 35812 ft | 470 kts | 317° |
| 2026-04-20 13:46 | 32.77151 | 45.08936 | 35812 ft | 470 kts | 317° |
| 2026-04-20 13:46 | 32.82576 | 45.04619 | 35821 ft | 470 kts | 317° |
| 2026-04-20 13:47 | 32.87963 | 45.00326 | 35838 ft | 469 kts | 317° |
| 2026-04-20 13:47 | 32.93394 | 44.95991 | 35835 ft | 470 kts | 317° |
| 2026-04-20 13:48 | 32.98831 | 44.91648 | 35829 ft | 471 kts | 317° |
| 2026-04-20 13:48 | 33.04267 | 44.87297 | 35837 ft | 471 kts | 317° |
| 2026-04-20 13:49 | 33.09671 | 44.82966 | 35837 ft | 471 kts | 317° |
| 2026-04-20 13:49 | 33.15101 | 44.78608 | 35844 ft | 471 kts | 317° |
| 2026-04-20 13:50 | 33.20823 | 44.74670 | 35829 ft | 487 kts | 331° |
| 2026-04-20 13:50 | 33.27545 | 44.72895 | 35832 ft | 508 kts | 349° |
| 2026-04-20 13:51 | 33.34643 | 44.72711 | 35844 ft | 511 kts | 352° |
| 2026-04-20 13:51 | 33.41717 | 44.72633 | 35838 ft | 512 kts | 352° |
| 2026-04-20 13:52 | 33.48835 | 44.72475 | 35833 ft | 512 kts | 351° |
| 2026-04-20 13:52 | 33.55959 | 44.72259 | 35852 ft | 511 kts | 351° |
| 2026-04-20 13:53 | 33.63073 | 44.72032 | 35814 ft | 511 kts | 351° |
| 2026-04-20 13:53 | 33.70177 | 44.71809 | 35813 ft | 511 kts | 351° |
| 2026-04-20 13:54 | 33.77236 | 44.71591 | 35827 ft | 511 kts | 352° |
| 2026-04-20 13:54 | 33.84342 | 44.71371 | 35818 ft | 511 kts | 352° |
| 2026-04-20 13:55 | 33.91452 | 44.71152 | 35820 ft | 511 kts | 352° |
| 2026-04-20 13:55 | 33.98568 | 44.70931 | 35825 ft | 512 kts | 352° |
| 2026-04-20 13:56 | 34.05642 | 44.70711 | 35818 ft | 512 kts | 352° |
| 2026-04-20 13:56 | 34.12773 | 44.70489 | 35842 ft | 513 kts | 352° |
| 2026-04-20 13:57 | 34.19910 | 44.70266 | 35822 ft | 513 kts | 352° |
| 2026-04-20 13:57 | 34.27048 | 44.70044 | 35823 ft | 513 kts | 352° |
| 2026-04-20 13:58 | 34.34145 | 44.69822 | 35834 ft | 513 kts | 352° |
| 2026-04-20 13:58 | 34.41286 | 44.69599 | 35831 ft | 513 kts | 352° |
| 2026-04-20 13:59 | 34.48387 | 44.69120 | 35815 ft | 507 kts | 345° |
| 2026-04-20 13:59 | 34.55180 | 44.67239 | 35832 ft | 497 kts | 335° |
| 2026-04-20 14:00 | 34.61540 | 44.64252 | 35832 ft | 492 kts | 330° |
| 2026-04-20 14:00 | 34.67885 | 44.61114 | 35844 ft | 493 kts | 331° |
| 2026-04-20 14:01 | 34.74247 | 44.58004 | 35850 ft | 494 kts | 331° |
| 2026-04-20 14:01 | 34.80648 | 44.54905 | 35825 ft | 495 kts | 331° |
| 2026-04-20 14:02 | 34.87043 | 44.51812 | 35815 ft | 495 kts | 331° |
| 2026-04-20 14:02 | 34.93396 | 44.48733 | 35820 ft | 494 kts | 331° |
| 2026-04-20 14:03 | 34.99782 | 44.45629 | 35825 ft | 494 kts | 331° |
| 2026-04-20 14:03 | 35.06167 | 44.42519 | 35827 ft | 494 kts | 331° |
| 2026-04-20 14:04 | 35.12553 | 44.39404 | 35826 ft | 494 kts | 331° |
| 2026-04-20 14:04 | 35.18939 | 44.36285 | 35821 ft | 494 kts | 331° |
| 2026-04-20 14:05 | 35.25269 | 44.33187 | 35831 ft | 494 kts | 331° |
| 2026-04-20 14:05 | 35.31634 | 44.30033 | 35823 ft | 492 kts | 330° |
| 2026-04-20 14:06 | 35.37931 | 44.26779 | 35826 ft | 492 kts | 330° |
| 2026-04-20 14:06 | 35.44229 | 44.23503 | 35834 ft | 492 kts | 330° |
| 2026-04-20 14:07 | 35.50541 | 44.20232 | 35848 ft | 492 kts | 330° |
| 2026-04-20 14:07 | 35.56815 | 44.16985 | 35841 ft | 493 kts | 330° |
| 2026-04-20 14:08 | 35.63133 | 44.13710 | 35842 ft | 493 kts | 330° |
| 2026-04-20 14:08 | 35.69466 | 44.10420 | 35862 ft | 494 kts | 330° |
| 2026-04-20 14:09 | 35.75795 | 44.07127 | 35858 ft | 495 kts | 330° |
| 2026-04-20 14:09 | 35.82138 | 44.03821 | 35853 ft | 495 kts | 330° |
| 2026-04-20 14:10 | 35.88427 | 44.00550 | 35861 ft | 494 kts | 330° |
| 2026-04-20 14:10 | 35.94770 | 43.97248 | 35865 ft | 495 kts | 330° |
| 2026-04-20 14:11 | 36.01121 | 43.93934 | 35855 ft | 496 kts | 330° |
| 2026-04-20 14:11 | 36.07492 | 43.90604 | 35847 ft | 498 kts | 330° |
| 2026-04-20 14:12 | 36.13875 | 43.87262 | 35840 ft | 498 kts | 330° |
| 2026-04-20 14:12 | 36.20264 | 43.83910 | 35851 ft | 499 kts | 330° |
| 2026-04-20 14:13 | 36.26621 | 43.80569 | 35843 ft | 500 kts | 330° |
| 2026-04-20 14:13 | 36.33043 | 43.77220 | 35846 ft | 501 kts | 330° |
| 2026-04-20 14:14 | 36.39485 | 43.73894 | 35867 ft | 502 kts | 330° |
| 2026-04-20 14:14 | 36.45924 | 43.70560 | 35885 ft | 502 kts | 330° |
| 2026-04-20 14:15 | 36.52330 | 43.67230 | 35902 ft | 501 kts | 330° |
| 2026-04-20 14:15 | 36.58760 | 43.63880 | 35903 ft | 501 kts | 330° |
| 2026-04-20 14:16 | 36.65187 | 43.60525 | 35914 ft | 501 kts | 330° |
| 2026-04-20 14:16 | 36.71623 | 43.57160 | 35903 ft | 501 kts | 330° |
| 2026-04-20 14:17 | 36.78041 | 43.53749 | 35900 ft | 500 kts | 329° |
| 2026-04-20 14:17 | 36.84333 | 43.50226 | 35905 ft | 500 kts | 329° |
| 2026-04-20 14:18 | 36.90674 | 43.46650 | 35907 ft | 499 kts | 329° |
| 2026-04-20 14:18 | 36.97001 | 43.43095 | 35941 ft | 500 kts | 329° |
| 2026-04-20 14:19 | 37.03378 | 43.39524 | 35937 ft | 502 kts | 329° |
| 2026-04-20 14:19 | 37.09726 | 43.35959 | 35926 ft | 503 kts | 329° |
| 2026-04-20 14:20 | 37.16035 | 43.32410 | 35930 ft | 504 kts | 329° |
| 2026-04-20 14:20 | 37.22433 | 43.28803 | 35934 ft | 504 kts | 329° |
| 2026-04-20 14:21 | 37.28837 | 43.25190 | 35956 ft | 505 kts | 329° |
| 2026-04-20 14:21 | 37.34591 | 43.20498 | 35912 ft | 484 kts | 308° |
| 2026-04-20 14:22 | 37.36757 | 43.17415 | 35962 ft | 472 kts | 300° |
| 2026-04-20 14:22 | 37.38478 | 43.13957 | 35890 ft | 464 kts | 291° |
| 2026-04-20 14:22 | 37.41441 | 43.06775 | 35958 ft | 464 kts | 290° |
| 2026-04-20 14:23 | 37.44435 | 42.99551 | 35913 ft | 467 kts | 291° |
| 2026-04-20 14:23 | 37.47479 | 42.92336 | 35931 ft | 467 kts | 291° |
| 2026-04-20 14:24 | 37.50535 | 42.85121 | 35947 ft | 468 kts | 291° |
| 2026-04-20 14:24 | 37.53588 | 42.77894 | 35921 ft | 470 kts | 291° |
| 2026-04-20 14:25 | 37.56629 | 42.70670 | 35920 ft | 470 kts | 291° |
| 2026-04-20 14:25 | 37.59689 | 42.63394 | 35945 ft | 470 kts | 291° |
| 2026-04-20 14:26 | 37.62769 | 42.56097 | 35918 ft | 471 kts | 291° |
| 2026-04-20 14:26 | 37.65842 | 42.48812 | 35916 ft | 471 kts | 291° |
| 2026-04-20 14:27 | 37.68885 | 42.41575 | 35931 ft | 470 kts | 291° |
| 2026-04-20 14:27 | 37.71942 | 42.34284 | 35908 ft | 470 kts | 291° |
| 2026-04-20 14:28 | 37.74999 | 42.26977 | 35908 ft | 469 kts | 291° |
| 2026-04-20 14:28 | 37.78045 | 42.19680 | 35922 ft | 470 kts | 291° |
| 2026-04-20 14:29 | 37.81088 | 42.12366 | 35914 ft | 471 kts | 291° |
| 2026-04-20 14:29 | 37.84120 | 42.05067 | 35910 ft | 472 kts | 291° |
| 2026-04-20 14:30 | 37.87170 | 41.97711 | 35909 ft | 474 kts | 291° |
| 2026-04-20 14:30 | 37.90288 | 41.90325 | 35900 ft | 478 kts | 295° |
| 2026-04-20 14:31 | 37.94233 | 41.83503 | 35903 ft | 487 kts | 305° |
| 2026-04-20 14:31 | 37.98734 | 41.77120 | 35926 ft | 488 kts | 306° |
| 2026-04-20 14:32 | 38.03254 | 41.70720 | 35912 ft | 489 kts | 306° |
| 2026-04-20 14:32 | 38.07760 | 41.64259 | 35899 ft | 489 kts | 306° |
| 2026-04-20 14:33 | 38.12254 | 41.57769 | 35914 ft | 489 kts | 305° |
| 2026-04-20 14:33 | 38.16745 | 41.51263 | 35898 ft | 489 kts | 305° |
| 2026-04-20 14:34 | 38.21225 | 41.44761 | 35893 ft | 489 kts | 305° |
| 2026-04-20 14:34 | 38.25682 | 41.38285 | 35908 ft | 489 kts | 306° |
| 2026-04-20 14:35 | 38.30140 | 41.31793 | 35881 ft | 490 kts | 306° |
| 2026-04-20 14:35 | 38.34627 | 41.25249 | 35898 ft | 489 kts | 306° |
| 2026-04-20 14:36 | 38.39059 | 41.18766 | 35900 ft | 489 kts | 306° |
| 2026-04-20 14:36 | 38.43513 | 41.12242 | 35896 ft | 488 kts | 306° |
| 2026-04-20 14:37 | 38.47951 | 41.05696 | 35910 ft | 488 kts | 306° |
| 2026-04-20 14:37 | 38.52304 | 40.99052 | 35899 ft | 488 kts | 305° |
| 2026-04-20 14:38 | 38.56641 | 40.92392 | 35892 ft | 488 kts | 305° |
| 2026-04-20 14:38 | 38.60958 | 40.85783 | 35899 ft | 487 kts | 306° |
| 2026-04-20 14:39 | 38.65298 | 40.79156 | 35892 ft | 486 kts | 306° |
| 2026-04-20 14:39 | 38.69672 | 40.72553 | 35896 ft | 487 kts | 306° |
| 2026-04-20 14:40 | 38.74043 | 40.65953 | 35904 ft | 488 kts | 306° |
| 2026-04-20 14:40 | 38.78423 | 40.59314 | 35893 ft | 488 kts | 306° |
| 2026-04-20 14:41 | 38.82802 | 40.52654 | 35893 ft | 488 kts | 306° |
| 2026-04-20 14:41 | 38.87145 | 40.46033 | 35902 ft | 488 kts | 306° |
| 2026-04-20 14:42 | 38.91508 | 40.39367 | 35903 ft | 487 kts | 306° |
| 2026-04-20 14:42 | 38.95858 | 40.32709 | 35900 ft | 487 kts | 306° |
| 2026-04-20 14:43 | 39.00203 | 40.26046 | 35908 ft | 486 kts | 306° |
| 2026-04-20 14:43 | 39.04536 | 40.19385 | 35908 ft | 485 kts | 306° |
| 2026-04-20 14:44 | 39.08828 | 40.12774 | 35914 ft | 484 kts | 306° |
| 2026-04-20 14:44 | 39.13113 | 40.06157 | 35908 ft | 484 kts | 306° |
| 2026-04-20 14:45 | 39.17426 | 39.99486 | 35896 ft | 484 kts | 306° |
| 2026-04-20 14:45 | 39.21730 | 39.92820 | 35917 ft | 484 kts | 306° |
| 2026-04-20 14:46 | 39.26006 | 39.86186 | 35909 ft | 484 kts | 306° |
| 2026-04-20 14:46 | 39.30308 | 39.79499 | 35894 ft | 483 kts | 306° |
| 2026-04-20 14:47 | 39.34578 | 39.72844 | 35909 ft | 482 kts | 307° |
| 2026-04-20 14:48 | 39.40956 | 39.62878 | 35906 ft | 481 kts | 306° |
| 2026-04-20 14:48 | 39.45188 | 39.56247 | 35920 ft | 481 kts | 306° |
| 2026-04-20 14:49 | 39.49428 | 39.49590 | 35921 ft | 481 kts | 307° |
| 2026-04-20 14:49 | 39.53657 | 39.42896 | 35928 ft | 480 kts | 306° |
| 2026-04-20 14:50 | 39.57796 | 39.36216 | 35923 ft | 479 kts | 306° |
| 2026-04-20 14:50 | 39.61981 | 39.29443 | 35924 ft | 479 kts | 306° |
| 2026-04-20 14:51 | 39.66137 | 39.22718 | 35926 ft | 479 kts | 306° |
| 2026-04-20 14:51 | 39.70297 | 39.15981 | 35936 ft | 477 kts | 306° |
| 2026-04-20 14:52 | 39.74460 | 39.09246 | 35944 ft | 478 kts | 307° |
| 2026-04-20 14:52 | 39.78636 | 39.02601 | 35937 ft | 478 kts | 307° |
| 2026-04-20 14:53 | 39.82844 | 38.95906 | 35951 ft | 479 kts | 307° |
| 2026-04-20 14:53 | 39.87052 | 38.89181 | 35942 ft | 479 kts | 307° |
| 2026-04-20 14:54 | 39.91247 | 38.82453 | 35951 ft | 478 kts | 307° |
| 2026-04-20 14:54 | 39.95408 | 38.75763 | 35952 ft | 478 kts | 307° |
| 2026-04-20 14:55 | 39.99592 | 38.69021 | 35955 ft | 478 kts | 307° |
| 2026-04-20 14:55 | 40.03767 | 38.62283 | 35967 ft | 477 kts | 307° |
| 2026-04-20 14:56 | 40.07932 | 38.55545 | 35974 ft | 477 kts | 307° |
| 2026-04-20 14:56 | 40.12089 | 38.48804 | 35978 ft | 477 kts | 307° |
| 2026-04-20 14:57 | 40.16245 | 38.42051 | 35972 ft | 476 kts | 307° |
| 2026-04-20 14:57 | 40.20364 | 38.35343 | 35990 ft | 476 kts | 307° |
| 2026-04-20 14:58 | 40.24506 | 38.28582 | 36004 ft | 475 kts | 307° |
| 2026-04-20 14:58 | 40.28631 | 38.21836 | 35995 ft | 475 kts | 307° |
| 2026-04-20 14:59 | 40.32472 | 38.14833 | 36006 ft | 473 kts | 299° |
| 2026-04-20 14:59 | 40.35271 | 38.07125 | 36015 ft | 470 kts | 290° |
| 2026-04-20 15:00 | 40.37620 | 37.99125 | 36021 ft | 471 kts | 290° |
| 2026-04-20 15:00 | 40.39988 | 37.91108 | 36040 ft | 471 kts | 290° |
| 2026-04-20 15:01 | 40.42381 | 37.83097 | 36041 ft | 472 kts | 290° |
| 2026-04-20 15:01 | 40.44759 | 37.75135 | 36046 ft | 472 kts | 291° |
| 2026-04-20 15:02 | 40.47143 | 37.67124 | 36047 ft | 471 kts | 291° |
| 2026-04-20 15:02 | 40.49523 | 37.59103 | 36053 ft | 471 kts | 291° |
| 2026-04-20 15:03 | 40.51897 | 37.51081 | 36053 ft | 470 kts | 291° |
| 2026-04-20 15:03 | 40.54263 | 37.43062 | 36054 ft | 470 kts | 291° |
| 2026-04-20 15:04 | 40.56604 | 37.35105 | 36057 ft | 469 kts | 291° |
| 2026-04-20 15:04 | 40.58948 | 37.27108 | 36056 ft | 469 kts | 291° |
| 2026-04-20 15:05 | 40.61289 | 37.19099 | 36058 ft | 468 kts | 291° |
| 2026-04-20 15:05 | 40.63612 | 37.11127 | 36049 ft | 467 kts | 291° |
| 2026-04-20 15:06 | 40.65915 | 37.03200 | 36050 ft | 466 kts | 291° |
| 2026-04-20 15:06 | 40.68221 | 36.95241 | 36056 ft | 465 kts | 291° |
| 2026-04-20 15:07 | 40.70503 | 36.87337 | 36045 ft | 463 kts | 291° |
| 2026-04-20 15:07 | 40.72779 | 36.79431 | 36048 ft | 462 kts | 291° |
| 2026-04-20 15:08 | 40.75026 | 36.71603 | 36048 ft | 462 kts | 291° |
| 2026-04-20 15:08 | 40.77247 | 36.63849 | 36053 ft | 461 kts | 291° |
| 2026-04-20 15:09 | 40.79480 | 36.56068 | 36045 ft | 460 kts | 291° |
| 2026-04-20 15:09 | 40.81717 | 36.48252 | 36043 ft | 460 kts | 291° |
| 2026-04-20 15:10 | 40.83974 | 36.40339 | 36038 ft | 460 kts | 291° |
| 2026-04-20 15:10 | 40.86203 | 36.32496 | 36041 ft | 459 kts | 291° |
| 2026-04-20 15:11 | 40.88442 | 36.24597 | 36037 ft | 459 kts | 291° |
| 2026-04-20 15:11 | 40.90672 | 36.16703 | 36037 ft | 459 kts | 290° |
| 2026-04-20 15:12 | 40.92899 | 36.08800 | 36025 ft | 458 kts | 290° |
| 2026-04-20 15:12 | 40.95098 | 36.00891 | 36023 ft | 458 kts | 290° |
| 2026-04-20 15:13 | 40.97246 | 35.93024 | 36022 ft | 458 kts | 290° |
| 2026-04-20 15:13 | 40.99413 | 35.85098 | 36010 ft | 458 kts | 290° |
| 2026-04-20 15:14 | 41.01602 | 35.77199 | 36017 ft | 457 kts | 290° |
| 2026-04-20 15:14 | 41.03799 | 35.69294 | 36006 ft | 457 kts | 290° |
| 2026-04-20 15:15 | 41.05951 | 35.61514 | 36004 ft | 456 kts | 290° |
| 2026-04-20 15:15 | 41.08050 | 35.53886 | 35998 ft | 456 kts | 290° |
| 2026-04-20 15:16 | 41.10184 | 35.46108 | 35995 ft | 455 kts | 290° |
| 2026-04-20 15:16 | 41.11912 | 35.39796 | 35995 ft | 455 kts | 290° |
| 2026-04-20 15:17 | 41.14385 | 35.30728 | 36000 ft | 455 kts | 290° |
| 2026-04-20 15:17 | 41.16492 | 35.22978 | 35998 ft | 454 kts | 290° |
| 2026-04-20 15:18 | 41.18628 | 35.15094 | 35987 ft | 454 kts | 290° |
| 2026-04-20 15:18 | 41.20345 | 35.08740 | 35989 ft | 454 kts | 290° |
| 2026-04-20 15:19 | 41.22440 | 35.00967 | 35991 ft | 454 kts | 290° |
| 2026-04-20 15:19 | 41.24751 | 34.92361 | 35992 ft | 454 kts | 289° |
| 2026-04-20 15:20 | 41.26684 | 34.85144 | 35981 ft | 454 kts | 289° |
| 2026-04-20 15:20 | 41.28418 | 34.78652 | 35987 ft | 454 kts | 289° |
| 2026-04-20 15:21 | 41.30515 | 34.70780 | 35979 ft | 453 kts | 289° |
| 2026-04-20 15:21 | 41.32610 | 34.62889 | 35983 ft | 453 kts | 289° |
| 2026-04-20 15:22 | 41.34701 | 34.54988 | 35980 ft | 453 kts | 289° |
| 2026-04-20 15:22 | 41.36708 | 34.47379 | 35981 ft | 452 kts | 289° |
| 2026-04-20 15:23 | 41.38790 | 34.39464 | 35985 ft | 452 kts | 289° |
| 2026-04-20 15:23 | 41.40859 | 34.31561 | 35988 ft | 452 kts | 289° |
| 2026-04-20 15:24 | 41.42901 | 34.23632 | 35982 ft | 452 kts | 289° |
| 2026-04-20 15:24 | 41.44933 | 34.15715 | 35978 ft | 452 kts | 289° |
| 2026-04-20 15:25 | 41.46956 | 34.07846 | 35982 ft | 452 kts | 289° |
| 2026-04-20 15:25 | 41.48995 | 33.99933 | 35981 ft | 451 kts | 289° |
| 2026-04-20 15:26 | 41.51025 | 33.92023 | 35980 ft | 450 kts | 289° |
| 2026-04-20 15:26 | 41.53047 | 33.84116 | 35988 ft | 450 kts | 288° |
| 2026-04-20 15:27 | 41.55050 | 33.76254 | 35987 ft | 450 kts | 288° |
| 2026-04-20 15:27 | 41.57059 | 33.68344 | 35990 ft | 450 kts | 288° |
| 2026-04-20 15:28 | 41.59065 | 33.60423 | 35996 ft | 450 kts | 288° |
| 2026-04-20 15:28 | 41.61036 | 33.52493 | 35993 ft | 450 kts | 288° |
| 2026-04-20 15:29 | 41.63025 | 33.44550 | 35997 ft | 450 kts | 288° |
| 2026-04-20 15:29 | 41.65013 | 33.36690 | 36000 ft | 450 kts | 288° |
| 2026-04-20 15:30 | 41.67012 | 33.28744 | 36000 ft | 450 kts | 288° |
| 2026-04-20 15:30 | 41.68997 | 33.20808 | 36004 ft | 450 kts | 288° |
| 2026-04-20 15:31 | 41.70974 | 33.12872 | 36019 ft | 450 kts | 288° |
| 2026-04-20 15:31 | 41.72938 | 33.04971 | 36007 ft | 450 kts | 288° |
| 2026-04-20 15:32 | 41.74892 | 32.97013 | 36012 ft | 450 kts | 288° |
| 2026-04-20 15:32 | 41.76822 | 32.89049 | 36019 ft | 450 kts | 288° |
| 2026-04-20 15:33 | 41.78753 | 32.81069 | 36021 ft | 450 kts | 288° |
| 2026-04-20 15:33 | 41.80682 | 32.73100 | 36014 ft | 450 kts | 288° |
| 2026-04-20 15:34 | 41.82634 | 32.65171 | 36013 ft | 450 kts | 288° |
| 2026-04-20 15:34 | 41.84592 | 32.57203 | 36013 ft | 450 kts | 288° |
| 2026-04-20 15:35 | 41.86540 | 32.49227 | 36018 ft | 450 kts | 288° |
| 2026-04-20 15:35 | 41.88445 | 32.41275 | 36016 ft | 450 kts | 287° |
| 2026-04-20 15:36 | 41.90319 | 32.33245 | 36017 ft | 451 kts | 287° |
| 2026-04-20 15:36 | 41.92238 | 32.25235 | 36016 ft | 451 kts | 287° |
| 2026-04-20 15:37 | 41.94150 | 32.17215 | 36016 ft | 451 kts | 287° |
| 2026-04-20 15:37 | 41.96051 | 32.09190 | 36016 ft | 451 kts | 287° |
| 2026-04-20 15:38 | 41.97936 | 32.01208 | 36016 ft | 451 kts | 287° |
| 2026-04-20 15:38 | 41.99828 | 31.93173 | 36016 ft | 451 kts | 287° |
| 2026-04-20 15:39 | 42.01717 | 31.85121 | 36017 ft | 451 kts | 287° |
| 2026-04-20 15:39 | 42.03597 | 31.77071 | 36016 ft | 451 kts | 287° |
| 2026-04-20 15:40 | 42.05471 | 31.69019 | 36016 ft | 451 kts | 287° |
| 2026-04-20 15:40 | 42.07330 | 31.61004 | 36011 ft | 451 kts | 287° |
| 2026-04-20 15:41 | 42.09193 | 31.52940 | 36013 ft | 451 kts | 287° |
| 2026-04-20 15:41 | 42.11055 | 31.44859 | 36010 ft | 451 kts | 287° |
| 2026-04-20 15:42 | 42.12908 | 31.36787 | 36008 ft | 451 kts | 287° |
| 2026-04-20 15:42 | 42.14748 | 31.28772 | 36008 ft | 451 kts | 287° |
| 2026-04-20 15:43 | 42.16599 | 31.20686 | 36005 ft | 451 kts | 287° |
| 2026-04-20 15:43 | 42.18442 | 31.12601 | 36003 ft | 451 kts | 287° |
| 2026-04-20 15:44 | 42.20280 | 31.04504 | 36004 ft | 451 kts | 287° |
| 2026-04-20 15:44 | 42.22101 | 30.96455 | 36000 ft | 452 kts | 287° |
| 2026-04-20 15:45 | 42.23921 | 30.88377 | 35999 ft | 452 kts | 287° |
| 2026-04-20 15:45 | 42.25742 | 30.80269 | 35999 ft | 452 kts | 287° |
| 2026-04-20 15:46 | 42.27562 | 30.72134 | 35995 ft | 452 kts | 287° |
| 2026-04-20 15:46 | 42.29372 | 30.64013 | 35992 ft | 452 kts | 287° |
| 2026-04-20 15:47 | 42.31180 | 30.55870 | 35995 ft | 452 kts | 287° |
| 2026-04-20 15:47 | 42.32971 | 30.47774 | 35984 ft | 452 kts | 287° |
| 2026-04-20 15:48 | 42.34766 | 30.39630 | 35994 ft | 452 kts | 287° |
| 2026-04-20 15:48 | 42.36555 | 30.31478 | 35989 ft | 452 kts | 287° |
| 2026-04-20 15:49 | 42.38342 | 30.23306 | 35965 ft | 453 kts | 287° |
| 2026-04-20 15:49 | 42.40108 | 30.15201 | 35979 ft | 453 kts | 287° |
| 2026-04-20 15:50 | 42.41882 | 30.07029 | 35975 ft | 453 kts | 287° |
| 2026-04-20 15:50 | 42.43651 | 29.98851 | 35976 ft | 453 kts | 287° |
| 2026-04-20 15:51 | 42.45543 | 29.90736 | 35965 ft | 452 kts | 292° |
| 2026-04-20 15:51 | 42.48402 | 29.83217 | 35971 ft | 452 kts | 301° |
| 2026-04-20 15:52 | 42.52101 | 29.76306 | 35980 ft | 453 kts | 307° |
| 2026-04-20 15:52 | 42.55953 | 29.69554 | 35968 ft | 453 kts | 307° |
| 2026-04-20 15:53 | 42.61707 | 29.59364 | 35953 ft | 453 kts | 306° |
| 2026-04-20 15:53 | 42.65514 | 29.52548 | 35949 ft | 453 kts | 306° |
| 2026-04-20 15:54 | 42.69314 | 29.45721 | 35947 ft | 453 kts | 306° |
| 2026-04-20 15:54 | 42.73084 | 29.38934 | 35945 ft | 453 kts | 306° |
| 2026-04-20 15:55 | 42.76871 | 29.32101 | 35950 ft | 452 kts | 306° |
| 2026-04-20 15:55 | 42.80652 | 29.25266 | 35949 ft | 452 kts | 306° |
| 2026-04-20 15:56 | 42.84433 | 29.18413 | 35945 ft | 452 kts | 306° |
| 2026-04-20 15:56 | 42.88205 | 29.11562 | 35937 ft | 452 kts | 306° |
| 2026-04-20 15:57 | 42.91966 | 29.04714 | 35935 ft | 452 kts | 306° |
| 2026-04-20 15:57 | 42.95705 | 28.97889 | 35943 ft | 452 kts | 306° |
| 2026-04-20 15:58 | 42.99466 | 28.91010 | 35931 ft | 452 kts | 306° |
| 2026-04-20 15:58 | 43.03218 | 28.84132 | 35927 ft | 452 kts | 306° |
| 2026-04-20 15:59 | 43.06962 | 28.77246 | 35924 ft | 451 kts | 305° |
| 2026-04-20 15:59 | 43.10662 | 28.70366 | 35925 ft | 451 kts | 305° |
| 2026-04-20 16:00 | 43.14373 | 28.63431 | 35935 ft | 451 kts | 305° |
| 2026-04-20 16:00 | 43.18076 | 28.56499 | 35928 ft | 451 kts | 305° |
| 2026-04-20 16:01 | 43.21780 | 28.49552 | 35924 ft | 451 kts | 305° |
| 2026-04-20 16:01 | 43.25461 | 28.42637 | 35922 ft | 452 kts | 304° |
| 2026-04-20 16:02 | 43.29157 | 28.35674 | 35922 ft | 452 kts | 304° |
| 2026-04-20 16:02 | 43.32855 | 28.28693 | 35927 ft | 452 kts | 304° |
| 2026-04-20 16:03 | 43.36547 | 28.21706 | 35903 ft | 452 kts | 304° |
| 2026-04-20 16:03 | 43.40234 | 28.14713 | 35901 ft | 452 kts | 304° |
| 2026-04-20 16:04 | 43.43887 | 28.07767 | 35880 ft | 451 kts | 304° |
| 2026-04-20 16:04 | 43.47559 | 28.00767 | 35874 ft | 451 kts | 304° |
| 2026-04-20 16:05 | 43.51223 | 27.93768 | 35876 ft | 450 kts | 304° |
| 2026-04-20 16:05 | 43.54880 | 27.86766 | 35869 ft | 450 kts | 304° |
| 2026-04-20 16:06 | 43.58504 | 27.79808 | 35857 ft | 449 kts | 304° |
| 2026-04-20 16:06 | 43.62142 | 27.72808 | 35858 ft | 449 kts | 304° |
| 2026-04-20 16:07 | 43.65779 | 27.65794 | 35854 ft | 449 kts | 303° |
| 2026-04-20 16:07 | 43.69406 | 27.58780 | 35848 ft | 449 kts | 303° |
| 2026-04-20 16:08 | 43.73016 | 27.51785 | 35847 ft | 450 kts | 303° |
| 2026-04-20 16:08 | 43.76640 | 27.44744 | 35857 ft | 450 kts | 303° |
| 2026-04-20 16:09 | 43.80275 | 27.37665 | 35855 ft | 451 kts | 303° |
| 2026-04-20 16:09 | 43.83905 | 27.30580 | 35845 ft | 451 kts | 303° |
| 2026-04-20 16:10 | 43.87533 | 27.23480 | 35844 ft | 451 kts | 303° |
| 2026-04-20 16:10 | 43.91128 | 27.16429 | 35846 ft | 451 kts | 303° |
| 2026-04-20 16:11 | 43.94742 | 27.09322 | 35853 ft | 450 kts | 303° |
| 2026-04-20 16:11 | 43.98349 | 27.02213 | 35843 ft | 450 kts | 303° |
| 2026-04-20 16:12 | 44.01944 | 26.95108 | 35838 ft | 449 kts | 303° |
| 2026-04-20 16:12 | 44.05506 | 26.88053 | 35843 ft | 449 kts | 303° |
| 2026-04-20 16:13 | 44.09092 | 26.80958 | 35826 ft | 449 kts | 304° |
| 2026-04-20 16:13 | 44.12808 | 26.73965 | 35826 ft | 449 kts | 305° |
| 2026-04-20 16:14 | 44.16538 | 26.67051 | 35828 ft | 449 kts | 304° |
| 2026-04-20 16:14 | 44.20271 | 26.60086 | 35835 ft | 450 kts | 304° |
| 2026-04-20 16:15 | 44.24004 | 26.53069 | 35832 ft | 450 kts | 304° |
| 2026-04-20 16:15 | 44.27735 | 26.46025 | 35832 ft | 451 kts | 304° |
| 2026-04-20 16:16 | 44.31454 | 26.38984 | 35828 ft | 451 kts | 304° |
| 2026-04-20 16:16 | 44.35149 | 26.31976 | 35829 ft | 451 kts | 304° |
| 2026-04-20 16:17 | 44.38866 | 26.24907 | 35828 ft | 451 kts | 304° |
| 2026-04-20 16:17 | 44.42567 | 26.17854 | 35827 ft | 450 kts | 304° |
| 2026-04-20 16:18 | 44.46266 | 26.10786 | 35828 ft | 450 kts | 304° |
| 2026-04-20 16:18 | 44.49956 | 26.03716 | 35831 ft | 449 kts | 304° |
| 2026-04-20 16:19 | 44.53612 | 25.96697 | 35834 ft | 449 kts | 304° |
| 2026-04-20 16:19 | 44.57282 | 25.89633 | 35841 ft | 448 kts | 304° |
| 2026-04-20 16:20 | 44.60948 | 25.82558 | 35830 ft | 449 kts | 304° |
| 2026-04-20 16:20 | 44.64614 | 25.75466 | 35836 ft | 449 kts | 303° |
| 2026-04-20 16:21 | 44.68280 | 25.68359 | 35830 ft | 449 kts | 303° |
| 2026-04-20 16:21 | 44.71931 | 25.61261 | 36160 ft | 451 kts | 303° |
| 2026-04-20 16:22 | 44.73732 | 25.57754 | 36478 ft | 450 kts | 304° |
| 2026-04-20 16:22 | 44.75558 | 25.54192 | 36807 ft | 450 kts | 304° |
| 2026-04-20 16:22 | 44.77391 | 25.50616 | 37107 ft | 449 kts | 304° |
| 2026-04-20 16:22 | 44.79218 | 25.47043 | 37366 ft | 450 kts | 304° |
| 2026-04-20 16:23 | 44.81036 | 25.43486 | 37671 ft | 449 kts | 304° |
| 2026-04-20 16:23 | 44.82868 | 25.39895 | 37762 ft | 453 kts | 304° |
| 2026-04-20 16:23 | 44.86549 | 25.32668 | 37829 ft | 453 kts | 304° |
| 2026-04-20 16:24 | 44.90198 | 25.25487 | 37817 ft | 448 kts | 304° |
| 2026-04-20 16:24 | 44.93791 | 25.18399 | 37831 ft | 446 kts | 303° |
| 2026-04-20 16:25 | 44.97398 | 25.11265 | 37833 ft | 446 kts | 303° |
| 2026-04-20 16:25 | 45.00993 | 25.04135 | 37840 ft | 446 kts | 303° |
| 2026-04-20 16:26 | 45.04575 | 24.97013 | 37837 ft | 447 kts | 303° |
| 2026-04-20 16:26 | 45.08178 | 24.89834 | 37848 ft | 448 kts | 303° |
| 2026-04-20 16:27 | 45.11780 | 24.82638 | 37831 ft | 449 kts | 303° |
| 2026-04-20 16:27 | 45.15388 | 24.75411 | 37831 ft | 450 kts | 303° |
| 2026-04-20 16:28 | 45.18994 | 24.68170 | 37855 ft | 450 kts | 303° |
| 2026-04-20 16:28 | 45.22576 | 24.60959 | 37859 ft | 450 kts | 303° |
| 2026-04-20 16:29 | 45.26174 | 24.53699 | 37859 ft | 450 kts | 303° |
| 2026-04-20 16:29 | 45.29767 | 24.46429 | 37887 ft | 450 kts | 303° |
| 2026-04-20 16:30 | 45.33338 | 24.39184 | 37879 ft | 450 kts | 303° |
| 2026-04-20 16:30 | 45.36924 | 24.31894 | 37879 ft | 451 kts | 303° |
| 2026-04-20 16:31 | 45.40514 | 24.24571 | 37902 ft | 453 kts | 303° |
| 2026-04-20 16:31 | 45.44121 | 24.17197 | 37897 ft | 455 kts | 303° |
| 2026-04-20 16:32 | 45.47701 | 24.09861 | 37905 ft | 457 kts | 303° |
| 2026-04-20 16:32 | 45.51329 | 24.02407 | 37936 ft | 458 kts | 303° |
| 2026-04-20 16:33 | 45.54886 | 23.95081 | 37913 ft | 446 kts | 303° |
| 2026-04-20 16:33 | 45.58387 | 23.87850 | 37919 ft | 442 kts | 303° |
| 2026-04-20 16:34 | 45.61882 | 23.80612 | 37920 ft | 443 kts | 303° |
| 2026-04-20 16:34 | 45.65378 | 23.73352 | 37926 ft | 444 kts | 303° |
| 2026-04-20 16:35 | 45.68861 | 23.66104 | 37938 ft | 445 kts | 303° |
| 2026-04-20 16:35 | 45.72366 | 23.58791 | 37931 ft | 446 kts | 303° |
| 2026-04-20 16:36 | 45.75877 | 23.51446 | 37925 ft | 447 kts | 303° |
| 2026-04-20 16:36 | 45.79382 | 23.44093 | 37928 ft | 446 kts | 303° |
| 2026-04-20 16:37 | 45.82872 | 23.36754 | 37925 ft | 446 kts | 302° |
| 2026-04-20 16:37 | 45.86335 | 23.29450 | 37925 ft | 445 kts | 302° |
| 2026-04-20 16:38 | 45.89787 | 23.22153 | 37914 ft | 444 kts | 302° |
| 2026-04-20 16:38 | 45.93243 | 23.14829 | 37909 ft | 443 kts | 302° |
| 2026-04-20 16:39 | 45.96661 | 23.07567 | 37921 ft | 441 kts | 302° |
| 2026-04-20 16:39 | 46.00091 | 23.00258 | 37923 ft | 441 kts | 302° |
| 2026-04-20 16:40 | 46.03515 | 22.92944 | 37915 ft | 441 kts | 302° |
| 2026-04-20 16:40 | 46.06916 | 22.85659 | 37910 ft | 441 kts | 302° |
| 2026-04-20 16:41 | 46.10326 | 22.78338 | 37916 ft | 440 kts | 301° |
| 2026-04-20 16:41 | 46.13726 | 22.71019 | 37930 ft | 439 kts | 302° |
| 2026-04-20 16:42 | 46.17125 | 22.63683 | 37915 ft | 440 kts | 302° |
| 2026-04-20 16:42 | 46.20524 | 22.56326 | 37888 ft | 441 kts | 302° |
| 2026-04-20 16:43 | 46.23898 | 22.49010 | 37916 ft | 440 kts | 301° |
| 2026-04-20 16:43 | 46.27275 | 22.41660 | 37908 ft | 441 kts | 301° |
| 2026-04-20 16:44 | 46.30674 | 22.34241 | 37912 ft | 443 kts | 301° |
| 2026-04-20 16:44 | 46.34075 | 22.26806 | 37910 ft | 444 kts | 301° |
| 2026-04-20 16:45 | 46.37483 | 22.19332 | 37912 ft | 445 kts | 301° |
| 2026-04-20 16:45 | 46.40869 | 22.11889 | 37904 ft | 446 kts | 301° |
| 2026-04-20 16:46 | 46.44282 | 22.04365 | 37912 ft | 447 kts | 301° |
| 2026-04-20 16:46 | 46.47691 | 21.96828 | 37909 ft | 447 kts | 301° |
| 2026-04-20 16:47 | 46.51057 | 21.89367 | 37906 ft | 447 kts | 301° |
| 2026-04-20 16:47 | 46.54462 | 21.81799 | 37897 ft | 448 kts | 301° |
| 2026-04-20 16:48 | 46.57874 | 21.74194 | 37899 ft | 450 kts | 301° |
| 2026-04-20 16:48 | 46.61286 | 21.66570 | 37896 ft | 451 kts | 301° |
| 2026-04-20 16:49 | 46.64706 | 21.58906 | 37897 ft | 452 kts | 301° |
| 2026-04-20 16:49 | 46.68104 | 21.51271 | 37895 ft | 453 kts | 301° |
| 2026-04-20 16:50 | 46.71257 | 21.43347 | 37901 ft | 452 kts | 297° |
| 2026-04-20 16:50 | 46.74256 | 21.35280 | 37898 ft | 453 kts | 297° |
| 2026-04-20 16:51 | 46.77210 | 21.27314 | 37924 ft | 453 kts | 297° |
| 2026-04-20 16:51 | 46.80214 | 21.19242 | 37931 ft | 452 kts | 297° |
| 2026-04-20 16:52 | 46.83193 | 21.11236 | 37915 ft | 452 kts | 297° |
| 2026-04-20 16:52 | 46.86185 | 21.03173 | 37911 ft | 451 kts | 297° |
| 2026-04-20 16:53 | 46.89171 | 20.95099 | 37911 ft | 451 kts | 297° |
| 2026-04-20 16:53 | 46.92125 | 20.87087 | 37920 ft | 450 kts | 297° |
| 2026-04-20 16:54 | 46.95084 | 20.79039 | 37410 ft | 457 kts | 297° |
| 2026-04-20 16:54 | 46.96589 | 20.74935 | 36893 ft | 453 kts | 297° |
| 2026-04-20 16:54 | 46.98075 | 20.70878 | 36196 ft | 450 kts | 297° |
| 2026-04-20 16:55 | 46.99541 | 20.66869 | 35380 ft | 443 kts | 297° |
| 2026-04-20 16:55 | 47.00976 | 20.62943 | 34634 ft | 429 kts | 297° |
| 2026-04-20 16:55 | 47.02368 | 20.59125 | 33783 ft | 420 kts | 297° |
| 2026-04-20 16:55 | 47.03724 | 20.55398 | 32853 ft | 422 kts | 297° |
| 2026-04-20 16:56 | 47.05097 | 20.51622 | 31931 ft | 423 kts | 296° |
| 2026-04-20 16:56 | 47.06486 | 20.47791 | 31017 ft | 425 kts | 296° |
| 2026-04-20 16:56 | 47.07877 | 20.43954 | 30200 ft | 424 kts | 296° |
| 2026-04-20 16:56 | 47.09232 | 20.40212 | 29415 ft | 420 kts | 296° |
| 2026-04-20 16:57 | 47.10592 | 20.36449 | 28652 ft | 416 kts | 296° |
| 2026-04-20 16:57 | 47.11943 | 20.32710 | 27946 ft | 411 kts | 296° |
| 2026-04-20 16:57 | 47.13256 | 20.29069 | 27260 ft | 406 kts | 296° |
| 2026-04-20 16:57 | 47.14668 | 20.25436 | 26558 ft | 404 kts | 300° |
| 2026-04-20 16:58 | 47.16269 | 20.22061 | 25896 ft | 401 kts | 303° |
| 2026-04-20 16:58 | 47.18019 | 20.18900 | 25298 ft | 398 kts | 308° |
| 2026-04-20 16:58 | 47.19905 | 20.15937 | 24639 ft | 395 kts | 309° |
| 2026-04-20 16:58 | 47.21793 | 20.12998 | 24011 ft | 392 kts | 309° |
| 2026-04-20 16:59 | 47.23655 | 20.10092 | 23358 ft | 389 kts | 309° |
| 2026-04-20 16:59 | 47.25465 | 20.07252 | 22656 ft | 387 kts | 309° |
| 2026-04-20 16:59 | 47.27324 | 20.04324 | 21989 ft | 382 kts | 309° |
| 2026-04-20 16:59 | 47.29087 | 20.01538 | 21387 ft | 378 kts | 309° |
| 2026-04-20 17:00 | 47.32649 | 19.95898 | 20172 ft | 372 kts | 310° |
| 2026-04-20 17:00 | 47.34406 | 19.93113 | 19539 ft | 371 kts | 310° |
| 2026-04-20 17:00 | 47.36165 | 19.90324 | 18852 ft | 371 kts | 310° |
| 2026-04-20 17:01 | 47.37882 | 19.87601 | 17808 ft | 358 kts | 310° |
| 2026-04-20 17:01 | 47.39586 | 19.84895 | 17234 ft | 357 kts | 310° |
| 2026-04-20 17:01 | 47.41241 | 19.82224 | 16604 ft | 358 kts | 310° |
| 2026-04-20 17:01 | 47.42897 | 19.79509 | 16078 ft | 363 kts | 310° |
| 2026-04-20 17:02 | 47.44589 | 19.76732 | 15653 ft | 365 kts | 310° |
| 2026-04-20 17:02 | 47.46283 | 19.73957 | 15301 ft | 363 kts | 310° |
| 2026-04-20 17:02 | 47.47981 | 19.71174 | 14475 ft | 370 kts | 310° |
| 2026-04-20 17:02 | 47.49707 | 19.68344 | 13769 ft | 372 kts | 311° |
| 2026-04-20 17:03 | 47.51401 | 19.65569 | 13117 ft | 353 kts | 311° |
| 2026-04-20 17:03 | 47.53002 | 19.62941 | 12499 ft | 333 kts | 311° |
| 2026-04-20 17:03 | 47.54534 | 19.60423 | 11961 ft | 329 kts | 311° |
| 2026-04-20 17:03 | 47.56068 | 19.57898 | 11514 ft | 331 kts | 311° |
| 2026-04-20 17:04 | 47.57608 | 19.55361 | 11127 ft | 333 kts | 311° |
| 2026-04-20 17:04 | 47.59147 | 19.52790 | 10785 ft | 328 kts | 308° |
| 2026-04-20 17:04 | 47.60180 | 19.49960 | 10764 ft | 314 kts | 288° |
| 2026-04-20 17:04 | 47.60469 | 19.46821 | 10652 ft | 305 kts | 271° |
| 2026-04-20 17:05 | 47.60139 | 19.43811 | 10443 ft | 285 kts | 258° |
| 2026-04-20 17:05 | 47.59482 | 19.41188 | 10299 ft | 265 kts | 249° |
| 2026-04-20 17:05 | 47.58465 | 19.38940 | 10172 ft | 264 kts | 231° |
| 2026-04-20 17:05 | 47.57120 | 19.37144 | 10092 ft | 256 kts | 228° |
| 2026-04-20 17:06 | 47.55810 | 19.35396 | 9978 ft | 255 kts | 229° |
| 2026-04-20 17:06 | 47.54380 | 19.33709 | 9663 ft | 274 kts | 213° |
| 2026-04-20 17:06 | 47.52454 | 19.33072 | 9349 ft | 292 kts | 179° |
| 2026-04-20 17:06 | 47.50549 | 19.34028 | 9033 ft | 298 kts | 145° |
| 2026-04-20 17:07 | 47.49108 | 19.36209 | 8720 ft | 296 kts | 128° |
| 2026-04-20 17:07 | 47.47814 | 19.38539 | 8690 ft | 304 kts | 131° |
| 2026-04-20 17:07 | 47.46424 | 19.40876 | 8692 ft | 327 kts | 132° |
| 2026-04-20 17:07 | 47.44910 | 19.43348 | 8445 ft | 319 kts | 133° |
| 2026-04-20 17:08 | 47.43442 | 19.45719 | 7957 ft | 307 kts | 133° |
| 2026-04-20 17:08 | 47.42019 | 19.48007 | 7384 ft | 297 kts | 133° |
| 2026-04-20 17:08 | 47.40642 | 19.50217 | 6842 ft | 286 kts | 132° |
| 2026-04-20 17:08 | 47.39318 | 19.52341 | 6263 ft | 279 kts | 132° |
| 2026-04-20 17:09 | 47.38013 | 19.54434 | 5570 ft | 275 kts | 132° |
| 2026-04-20 17:09 | 47.36723 | 19.56502 | 4916 ft | 271 kts | 132° |
| 2026-04-20 17:09 | 47.35465 | 19.58502 | 4231 ft | 267 kts | 135° |
| 2026-04-20 17:09 | 47.33915 | 19.60000 | 3516 ft | 263 kts | 166° |
| 2026-04-20 17:10 | 47.32126 | 19.60068 | 3272 ft | 266 kts | 198° |
| 2026-04-20 17:10 | 47.30507 | 19.58842 | 3140 ft | 259 kts | 225° |
| 2026-04-20 17:10 | 47.29477 | 19.56787 | 3032 ft | 246 kts | 250° |
| 2026-04-20 17:10 | 47.29060 | 19.54411 | 2984 ft | 234 kts | 270° |
| 2026-04-20 17:11 | 47.29182 | 19.52073 | 2992 ft | 227 kts | 283° |
| 2026-04-20 17:11 | 47.29791 | 19.50058 | 2995 ft | 206 kts | 306° |
| 2026-04-20 17:11 | 47.30595 | 19.48430 | 2979 ft | 189 kts | 308° |
| 2026-04-20 17:11 | 47.31393 | 19.47004 | 2985 ft | 174 kts | 311° |
| 2026-04-20 17:12 | 47.32192 | 19.45683 | 2993 ft | 172 kts | 312° |
| 2026-04-20 17:12 | 47.32998 | 19.44378 | 2998 ft | 172 kts | 312° |
| 2026-04-20 17:12 | 47.33808 | 19.43073 | 2964 ft | 175 kts | 313° |
| 2026-04-20 17:12 | 47.34641 | 19.41733 | 2718 ft | 177 kts | 313° |
| 2026-04-20 17:13 | 47.35462 | 19.40412 | 2491 ft | 173 kts | 313° |
| 2026-04-20 17:13 | 47.35991 | 19.39560 | 2349 ft | 166 kts | 313° |
| 2026-04-20 17:13 | 47.36965 | 19.37991 | 2023 ft | 147 kts | 313° |
| 2026-04-20 17:13 | 47.37616 | 19.36941 | 1827 ft | 132 kts | 312° |
| 2026-04-20 17:14 | 47.38234 | 19.35944 | 1709 ft | 131 kts | 312° |
| 2026-04-20 17:14 | 47.38840 | 19.34969 | 1495 ft | 128 kts | 314° |
| 2026-04-20 17:14 | 47.39436 | 19.34008 | 1330 ft | 127 kts | 314° |
| 2026-04-20 17:14 | 47.40025 | 19.33057 | 1162 ft | 125 kts | 314° |
| 2026-04-20 17:15 | 47.40603 | 19.32120 | 1000 ft | 126 kts | 312° |
| 2026-04-20 17:15 | 47.41002 | 19.31466 | 850 ft | 127 kts | 313° |
| 2026-04-20 17:15 | 47.41782 | 19.30217 | 635 ft | 125 kts | 311° |
| 2026-04-20 17:15 | 47.42377 | 19.29255 | 470 ft | 129 kts | 313° |
| 2026-04-20 17:16 | 47.42954 | 19.28327 | 460 ft | 110 kts | 313° |
| 2026-04-20 17:16 | 47.43267 | 19.27816 | 470 ft | 84 kts | 313° |
| 2026-04-20 17:16 | 47.43509 | 19.27429 | 484 ft | 46 kts | 312° |
| 2026-04-20 17:16 | 47.43694 | 19.27102 | 487 ft | 38 kts | 298° |
| 2026-04-20 17:17 | 47.43752 | 19.26833 | 489 ft | 15 kts | 282° |
| 2026-04-20 17:17 | 47.43761 | 19.26777 | 484 ft | 0 kts | 283° |
| 2026-04-20 17:19 | 47.43762 | 19.26774 | 484 ft | 2 kts | 283° |
| 2026-04-20 17:19 | 47.43767 | 19.26741 | 486 ft | 5 kts | 283° |
| 2026-04-20 17:20 | 47.43778 | 19.26674 | 483 ft | 8 kts | 283° |
| 2026-04-20 17:20 | 47.43788 | 19.26605 | 484 ft | 0 kts | 282° |
| 2026-04-20 17:21 | 47.43789 | 19.26600 | 484 ft | 2 kts | 282° |
| 2026-04-20 17:21 | 47.43794 | 19.26561 | 481 ft | 6 kts | 282° |
| 2026-04-20 17:21 | 47.43806 | 19.26475 | 479 ft | 10 kts | 281° |
| 2026-04-20 17:22 | 47.43830 | 19.26361 | 480 ft | 13 kts | 299° |
| 2026-04-20 17:22 | 47.43887 | 19.26258 | 479 ft | 13 kts | 312° |
| 2026-04-20 17:22 | 47.43906 | 19.26142 | 485 ft | 13 kts | 236° |
| 2026-04-20 17:22 | 47.43840 | 19.26052 | 484 ft | 13 kts | 222° |
| 2026-04-20 17:23 | 47.43772 | 19.25962 | 485 ft | 13 kts | 222° |
| 2026-04-20 17:23 | 47.43705 | 19.25872 | 480 ft | 13 kts | 222° |
| 2026-04-20 17:23 | 47.43637 | 19.25780 | 482 ft | 14 kts | 223° |
| 2026-04-20 17:23 | 47.43564 | 19.25681 | 478 ft | 15 kts | 222° |
| 2026-04-20 17:24 | 47.43486 | 19.25575 | 476 ft | 17 kts | 223° |
| 2026-04-20 17:24 | 47.43391 | 19.25450 | 471 ft | 18 kts | 215° |
| 2026-04-20 17:24 | 47.43308 | 19.25488 | 469 ft | 14 kts | 131° |
| 2026-04-20 17:24 | 47.43244 | 19.25592 | 471 ft | 14 kts | 132° |
| 2026-04-20 17:25 | 47.43190 | 19.25698 | 471 ft | 9 kts | 98° |
| 2026-04-20 17:25 | 47.43208 | 19.25741 | 472 ft | 2 kts | 34° |
| 2026-04-20 17:25 | 47.43220 | 19.25753 | 477 ft | 2 kts | 33° |
| 2026-04-20 17:25 | 47.43232 | 19.25767 | 474 ft | 2 kts | 39° |
| 2026-04-20 17:26 | 47.43241 | 19.25778 | 473 ft | 0 kts | 42° |